Time;durP1;ratioP1;P1;durP2;ratioP2;P2;SDS_P1;SDS_P2;PMS_P1;PMS_P2;Temp;Humidity;BMP_temperature;BMP_pressure;BME280_temperature;BME280_humidity;BME280_pressure;Samples;Min_cycle;Max_cycle;Signal;HPM_P1;HPM_P2
2023/06/11 00:01:27;;;;;;;5.00;4.47;;;;;;;;;;8316117;28;20294;-65
2023/06/11 00:05:30;;;;;;;5.07;4.57;;;;;;;;;;8320720;28;20040;-61
2023/06/11 00:09:30;;;;;;;4.43;4.03;;;;;;;;;;8319302;28;21205;-61
2023/06/11 00:13:30;;;;;;;4.63;4.23;;;;;;;;;;8318872;28;20394;-61
2023/06/11 00:17:33;;;;;;;4.72;4.32;;;;;;;;;;8319256;28;20445;-61
2023/06/11 00:21:33;;;;;;;5.07;4.30;;;;;;;;;;8318438;28;20087;-61
2023/06/11 00:25:33;;;;;;;5.15;4.60;;;;;;;;;;8314093;28;20323;-61
2023/06/11 00:29:33;;;;;;;4.83;4.43;;;;;;;;;;8313213;28;20048;-61
2023/06/11 00:33:33;;;;;;;5.35;4.85;;;;;;;;;;8318951;28;20037;-62
2023/06/11 00:37:35;;;;;;;5.68;4.60;;;;;;;;;;8319569;28;20017;-61
2023/06/11 00:41:36;;;;;;;5.10;4.60;;;;;;;;;;8318500;28;20678;-61
2023/06/11 00:45:37;;;;;;;5.13;4.63;;;;;;;;;;8317651;28;20033;-61
2023/06/11 00:49:37;;;;;;;4.82;4.43;;;;;;;;;;8313885;28;20016;-61
2023/06/11 00:53:37;;;;;;;5.10;4.60;;;;;;;;;;8315951;28;20100;-61
2023/06/11 00:57:41;;;;;;;4.70;4.30;;;;;;;;;;8318071;28;20064;-61
2023/06/11 01:01:45;;;;;;;5.82;4.50;;;;;;;;;;8315328;28;20130;-61
2023/06/11 01:05:53;;;;;;;5.43;4.97;;;;;;;;;;8317394;28;20017;-61
2023/06/11 01:09:53;;;;;;;5.35;4.85;;;;;;;;;;8317921;28;20876;-61
2023/06/11 01:13:54;;;;;;;5.25;4.57;;;;;;;;;;8314474;28;20035;-61
2023/06/11 01:18:00;;;;;;;5.85;5.15;;;;;;;;;;8314492;28;20905;-61
2023/06/11 01:22:05;;;;;;;5.22;4.72;;;;;;;;;;8314364;28;20033;-61
2023/06/11 01:26:05;;;;;;;5.82;4.85;;;;;;;;;;8314404;28;20437;-61
2023/06/11 01:30:07;;;;;;;5.50;5.00;;;;;;;;;;8317837;28;20017;-61
2023/06/11 01:34:10;;;;;;;6.60;5.10;;;;;;;;;;8317872;28;20028;-61
2023/06/11 01:38:10;;;;;;;6.43;4.80;;;;;;;;;;8316966;28;20497;-61
2023/06/11 01:42:11;;;;;;;5.28;4.78;;;;;;;;;;8315925;28;20037;-61
2023/06/11 01:46:11;;;;;;;6.13;5.20;;;;;;;;;;8312163;28;21036;-61
2023/06/11 01:50:12;;;;;;;6.00;5.03;;;;;;;;;;8317746;28;20675;-61
2023/06/11 01:54:12;;;;;;;6.30;4.93;;;;;;;;;;8317670;28;20090;-61
2023/06/11 01:58:13;;;;;;;5.57;4.88;;;;;;;;;;8316987;28;20032;-61
2023/06/11 02:02:13;;;;;;;5.00;4.50;;;;;;;;;;8315387;28;20068;-61
2023/06/11 02:06:14;;;;;;;4.93;4.53;;;;;;;;;;8317328;28;20948;-61
2023/06/11 02:10:14;;;;;;;5.37;4.87;;;;;;;;;;8317280;28;20029;-61
2023/06/11 02:14:14;;;;;;;5.47;5.03;;;;;;;;;;8315822;28;20036;-61
2023/06/11 02:18:14;;;;;;;5.00;4.50;;;;;;;;;;8313184;28;20487;-61
2023/06/11 02:22:15;;;;;;;6.28;4.68;;;;;;;;;;8315501;28;20087;-61
2023/06/11 02:26:15;;;;;;;5.07;4.68;;;;;;;;;;8317658;28;20044;-61
2023/06/11 02:30:15;;;;;;;5.32;4.78;;;;;;;;;;8312264;28;20690;-61
2023/06/11 02:34:16;;;;;;;7.43;4.68;;;;;;;;;;8317466;28;20857;-61
2023/06/11 02:38:16;;;;;;;5.07;4.57;;;;;;;;;;8316134;28;20036;-61
2023/06/11 02:42:16;;;;;;;5.93;5.40;;;;;;;;;;8316819;28;20037;-61
2023/06/11 02:46:16;;;;;;;6.97;5.05;;;;;;;;;;8319963;28;20744;-61
2023/06/11 02:50:16;;;;;;;4.97;4.57;;;;;;;;;;8322031;28;20028;-61
2023/06/11 02:54:17;;;;;;;5.50;4.77;;;;;;;;;;8323045;28;20025;-61
2023/06/11 02:58:17;;;;;;;5.82;4.63;;;;;;;;;;8322421;28;20063;-62
2023/06/11 03:02:17;;;;;;;4.97;4.57;;;;;;;;;;8320712;28;20049;-61
2023/06/11 03:06:18;;;;;;;5.25;4.75;;;;;;;;;;8322164;28;20115;-61
2023/06/11 03:10:18;;;;;;;5.70;5.20;;;;;;;;;;8320610;28;20021;-61
2023/06/11 03:14:20;;;;;;;5.93;5.32;;;;;;;;;;8321623;28;20320;-61
2023/06/11 03:18:21;;;;;;;5.15;4.65;;;;;;;;;;8319072;28;20037;-61
2023/06/11 03:22:21;;;;;;;5.18;4.63;;;;;;;;;;8321582;28;20037;-61
2023/06/11 03:26:21;;;;;;;5.15;4.70;;;;;;;;;;8320197;28;20086;-61
2023/06/11 03:30:21;;;;;;;5.00;4.50;;;;;;;;;;8320529;28;20032;-61
2023/06/11 03:34:21;;;;;;;5.50;4.77;;;;;;;;;;8319227;28;20033;-60
2023/06/11 03:38:22;;;;;;;5.05;4.65;;;;;;;;;;8319701;28;20110;-61
2023/06/11 03:42:22;;;;;;;4.85;4.30;;;;;;;;;;8318537;28;20894;-61
2023/06/11 03:46:23;;;;;;;7.22;5.05;;;;;;;;;;8321867;28;20065;-60
2023/06/11 03:50:23;;;;;;;4.70;4.30;;;;;;;;;;8320061;28;20033;-61
2023/06/11 03:54:23;;;;;;;5.50;4.90;;;;;;;;;;8320555;28;20031;-61
2023/06/11 03:58:23;;;;;;;4.65;4.25;;;;;;;;;;8318360;28;20073;-61
2023/06/11 04:02:24;;;;;;;4.75;4.28;;;;;;;;;;8319267;28;20045;-60
2023/06/11 04:06:24;;;;;;;4.77;4.07;;;;;;;;;;8317369;28;20793;-61
2023/06/11 04:10:24;;;;;;;5.43;4.80;;;;;;;;;;8319739;28;20310;-60
2023/06/11 04:14:24;;;;;;;5.43;4.80;;;;;;;;;;8319510;28;20428;-61
2023/06/11 04:18:25;;;;;;;5.20;4.70;;;;;;;;;;8318706;28;20139;-61
2023/06/11 04:22:25;;;;;;;6.68;4.80;;;;;;;;;;8318648;28;20665;-61
2023/06/11 04:26:26;;;;;;;5.38;4.80;;;;;;;;;;8319937;28;20040;-61
2023/06/11 04:30:26;;;;;;;6.18;5.05;;;;;;;;;;8318439;28;20126;-61
2023/06/11 04:34:29;;;;;;;5.20;4.70;;;;;;;;;;8317734;28;20025;-61
2023/06/11 04:38:29;;;;;;;5.43;4.90;;;;;;;;;;8319324;28;20127;-60
2023/06/11 04:42:29;;;;;;;5.93;5.00;;;;;;;;;;8316841;28;20075;-60
2023/06/11 04:46:32;;;;;;;6.25;5.05;;;;;;;;;;8317109;28;20048;-61
2023/06/11 04:50:32;;;;;;;7.83;4.80;;;;;;;;;;8318251;28;20485;-61
2023/06/11 04:54:32;;;;;;;5.83;4.87;;;;;;;;;;8318538;28;20059;-61
2023/06/11 04:58:33;;;;;;;5.50;5.00;;;;;;;;;;8318989;28;20021;-61
2023/06/11 05:02:37;;;;;;;5.78;5.13;;;;;;;;;;8316935;28;20726;-61
2023/06/11 05:06:37;;;;;;;6.05;5.03;;;;;;;;;;8317943;28;20119;-61
2023/06/11 05:10:37;;;;;;;6.38;5.03;;;;;;;;;;8317579;28;20052;-61
2023/06/11 05:14:38;;;;;;;5.13;4.63;;;;;;;;;;8319369;28;20829;-61
2023/06/11 05:18:38;;;;;;;4.90;4.47;;;;;;;;;;8315759;28;20502;-61
2023/06/11 05:22:38;;;;;;;4.93;4.43;;;;;;;;;;8319283;28;20139;-61
2023/06/11 05:26:38;;;;;;;4.55;4.15;;;;;;;;;;8318251;28;20055;-61
2023/06/11 05:30:38;;;;;;;5.53;4.70;;;;;;;;;;8316881;28;20065;-61
2023/06/11 05:34:39;;;;;;;5.25;4.50;;;;;;;;;;8317270;28;20143;-61
2023/06/11 05:38:40;;;;;;;5.97;4.30;;;;;;;;;;8313022;28;20020;-61
2023/06/11 05:42:40;;;;;;;5.90;4.20;;;;;;;;;;8317648;28;20136;-61
2023/06/11 05:46:40;;;;;;;4.50;4.00;;;;;;;;;;8304829;28;20029;-61
2023/06/11 05:50:40;;;;;;;4.43;4.03;;;;;;;;;;8315979;28;20170;-61
2023/06/11 05:54:40;;;;;;;5.97;4.35;;;;;;;;;;8316959;28;20279;-61
2023/06/11 05:58:41;;;;;;;5.78;4.13;;;;;;;;;;8314846;28;20428;-61
2023/06/11 06:02:41;;;;;;;4.97;3.90;;;;;;;;;;8313534;28;20102;-61
2023/06/11 06:06:42;;;;;;;5.80;3.83;;;;;;;;;;8317196;28;20032;-61
2023/06/11 06:10:42;;;;;;;4.28;3.85;;;;;;;;;;8316981;28;20378;-61
2023/06/11 06:14:43;;;;;;;3.80;3.50;;;;;;;;;;8317345;28;20160;-61
2023/06/11 06:18:44;;;;;;;5.30;3.83;;;;;;;;;;8307541;28;20603;-61
2023/06/11 06:22:44;;;;;;;4.57;4.10;;;;;;;;;;8316123;28;20020;-61
2023/06/11 06:26:44;;;;;;;4.40;3.85;;;;;;;;;;8323376;28;20024;-61
2023/06/11 06:30:44;;;;;;;3.83;3.40;;;;;;;;;;8321270;28;20621;-61
2023/06/11 06:34:45;;;;;;;3.88;3.53;;;;;;;;;;8320351;28;20115;-61
2023/06/11 06:38:45;;;;;;;4.03;3.63;;;;;;;;;;8324582;28;20029;-61
2023/06/11 06:42:46;;;;;;;4.07;3.70;;;;;;;;;;8320190;28;20094;-61
2023/06/11 06:46:46;;;;;;;4.18;3.80;;;;;;;;;;8323078;28;20680;-62
2023/06/11 06:50:46;;;;;;;4.10;3.70;;;;;;;;;;8319174;28;20021;-61
2023/06/11 06:54:48;;;;;;;4.05;3.65;;;;;;;;;;8319702;28;20031;-61
2023/06/11 06:58:48;;;;;;;3.80;3.50;;;;;;;;;;8321975;28;20036;-61
2023/06/11 07:02:48;;;;;;;4.00;3.53;;;;;;;;;;8319835;28;20044;-61
2023/06/11 07:06:49;;;;;;;4.03;3.63;;;;;;;;;;8318910;28;20043;-61
2023/06/11 07:10:50;;;;;;;5.95;3.65;;;;;;;;;;8322979;28;20032;-62
2023/06/11 07:14:51;;;;;;;7.03;3.10;;;;;;;;;;8322606;28;20024;-61
2023/06/11 07:18:51;;;;;;;3.90;3.50;;;;;;;;;;8318934;28;20303;-61
2023/06/11 07:22:51;;;;;;;3.85;3.42;;;;;;;;;;8320155;28;20091;-61
2023/06/11 07:26:52;;;;;;;7.10;3.75;;;;;;;;;;8322014;28;20017;-61
2023/06/11 07:30:52;;;;;;;3.88;3.42;;;;;;;;;;8321429;28;20907;-61
2023/06/11 07:34:52;;;;;;;4.90;3.60;;;;;;;;;;8316501;28;20021;-61
2023/06/11 07:38:52;;;;;;;3.67;3.30;;;;;;;;;;8321054;28;20027;-62
2023/06/11 07:42:52;;;;;;;4.15;3.40;;;;;;;;;;8316942;28;20025;-61
2023/06/11 07:46:54;;;;;;;3.97;3.58;;;;;;;;;;8319210;28;20101;-61
2023/06/11 07:50:54;;;;;;;8.27;4.20;;;;;;;;;;8320165;28;20483;-61
2023/06/11 07:54:54;;;;;;;7.30;3.95;;;;;;;;;;8319385;28;20910;-61
2023/06/11 07:58:55;;;;;;;4.97;3.70;;;;;;;;;;8314949;28;20051;-61
2023/06/11 08:02:55;;;;;;;4.10;3.80;;;;;;;;;;8313799;28;20055;-61
2023/06/11 08:06:55;;;;;;;5.50;3.80;;;;;;;;;;8313829;28;20064;-61
2023/06/11 08:10:56;;;;;;;4.70;4.30;;;;;;;;;;8314905;28;20637;-61
2023/06/11 08:14:56;;;;;;;3.67;3.40;;;;;;;;;;8314930;28;20052;-61
2023/06/11 08:18:57;;;;;;;4.97;3.40;;;;;;;;;;8314758;28;20045;-61
2023/06/11 08:22:57;;;;;;;3.90;3.50;;;;;;;;;;8309763;28;20071;-61
2023/06/11 08:26:57;;;;;;;5.20;3.70;;;;;;;;;;8311294;28;20029;-61
2023/06/11 08:30:57;;;;;;;3.97;3.45;;;;;;;;;;8314278;28;20041;-62
2023/06/11 08:34:57;;;;;;;4.00;3.60;;;;;;;;;;8309664;28;20187;-61
2023/06/11 08:38:58;;;;;;;4.07;3.67;;;;;;;;;;8309866;28;20279;-61
2023/06/11 08:42:58;;;;;;;4.32;3.30;;;;;;;;;;8309961;28;20043;-61
2023/06/11 08:47:01;;;;;;;3.97;3.42;;;;;;;;;;8314182;28;20102;-61
2023/06/11 08:51:03;;;;;;;5.50;3.35;;;;;;;;;;8310624;28;20652;-61
2023/06/11 08:55:03;;;;;;;4.82;3.40;;;;;;;;;;8311980;28;20048;-61
2023/06/11 08:59:04;;;;;;;3.45;3.15;;;;;;;;;;8313272;28;20526;-61
2023/06/11 09:03:04;;;;;;;3.30;3.00;;;;;;;;;;8311448;28;20033;-61
2023/06/11 09:07:05;;;;;;;5.55;3.60;;;;;;;;;;8315234;28;20337;-61
2023/06/11 09:11:06;;;;;;;4.37;3.33;;;;;;;;;;8312911;28;20111;-63
2023/06/11 09:15:06;;;;;;;3.97;2.83;;;;;;;;;;8313883;28;20123;-61
2023/06/11 09:19:10;;;;;;;3.42;3.13;;;;;;;;;;8316611;28;20078;-61
2023/06/11 09:23:10;;;;;;;7.65;3.28;;;;;;;;;;8314378;28;20120;-62
2023/06/11 09:27:11;;;;;;;6.00;3.33;;;;;;;;;;8312768;28;20119;-61
2023/06/11 09:31:17;;;;;;;4.45;3.05;;;;;;;;;;8310086;28;20111;-62
2023/06/11 09:35:17;;;;;;;3.95;3.35;;;;;;;;;;8309830;28;20400;-62
2023/06/11 09:39:18;;;;;;;3.30;3.00;;;;;;;;;;8311991;28;20044;-61
2023/06/11 09:43:19;;;;;;;4.53;2.93;;;;;;;;;;8312086;28;20025;-61
2023/06/11 09:47:20;;;;;;;4.53;3.45;;;;;;;;;;8314665;28;20029;-61
2023/06/11 09:51:23;;;;;;;6.60;3.33;;;;;;;;;;8312123;28;20102;-61
2023/06/11 09:55:26;;;;;;;4.78;3.03;;;;;;;;;;8309458;28;20028;-62
2023/06/11 09:59:27;;;;;;;4.28;3.00;;;;;;;;;;8312434;28;20127;-61
2023/06/11 10:03:28;;;;;;;7.43;3.22;;;;;;;;;;8316703;28;20559;-61
2023/06/11 10:07:29;;;;;;;4.80;3.28;;;;;;;;;;8315248;28;20686;-61
2023/06/11 10:11:30;;;;;;;5.25;3.10;;;;;;;;;;8317034;28;20063;-61
2023/06/11 10:15:32;;;;;;;3.70;3.10;;;;;;;;;;8315248;28;20068;-61
2023/06/11 10:19:38;;;;;;;3.60;2.97;;;;;;;;;;8315061;28;20070;-61
2023/06/11 10:23:39;;;;;;;3.33;3.03;;;;;;;;;;8314782;28;20176;-61
2023/06/11 10:27:43;;;;;;;7.30;3.23;;;;;;;;;;8314151;28;20103;-61
2023/06/11 10:31:45;;;;;;;7.03;3.20;;;;;;;;;;8316224;28;20892;-61
2023/06/11 10:35:48;;;;;;;4.30;3.10;;;;;;;;;;8317629;28;20025;-61
2023/06/11 10:39:49;;;;;;;7.10;3.42;;;;;;;;;;8317270;28;20074;-61
2023/06/11 10:43:49;;;;;;;4.00;3.50;;;;;;;;;;8315123;28;20495;-61
2023/06/11 10:47:49;;;;;;;3.43;2.97;;;;;;;;;;8315186;28;21140;-61
2023/06/11 10:51:50;;;;;;;3.33;3.03;;;;;;;;;;8312512;28;20053;-61
2023/06/11 10:55:51;;;;;;;6.57;3.13;;;;;;;;;;8315341;28;20079;-61
2023/06/11 10:59:51;;;;;;;4.87;3.20;;;;;;;;;;8315868;28;20033;-61
2023/06/11 11:03:52;;;;;;;4.17;2.90;;;;;;;;;;8313752;28;20049;-62
2023/06/11 11:07:53;;;;;;;7.97;3.40;;;;;;;;;;8319058;28;20808;-61
2023/06/11 11:11:57;;;;;;;4.72;2.95;;;;;;;;;;8320158;28;20028;-61
2023/06/11 11:16:00;;;;;;;4.38;3.00;;;;;;;;;;8322489;28;20036;-61
2023/06/11 11:20:00;;;;;;;5.68;2.90;;;;;;;;;;8320860;28;20083;-61
2023/06/11 11:24:00;;;;;;;5.03;3.10;;;;;;;;;;8322389;28;20021;-62
2023/06/11 11:28:00;;;;;;;4.55;2.83;;;;;;;;;;8317581;28;20594;-61
2023/06/11 11:32:00;;;;;;;3.20;2.90;;;;;;;;;;8321241;28;20041;-61
2023/06/11 11:36:02;;;;;;;9.00;2.90;;;;;;;;;;8319787;28;20040;-61
2023/06/11 11:40:08;;;;;;;3.50;2.90;;;;;;;;;;8318373;28;20060;-61
2023/06/11 11:44:08;;;;;;;4.85;3.30;;;;;;;;;;8320591;28;20037;-61
2023/06/11 11:48:08;;;;;;;4.03;2.92;;;;;;;;;;8319471;28;20140;-61
2023/06/11 11:52:11;;;;;;;3.58;3.10;;;;;;;;;;8317927;28;20036;-61
2023/06/11 11:56:12;;;;;;;4.18;2.70;;;;;;;;;;8322288;28;20039;-61
2023/06/11 12:00:12;;;;;;;5.40;2.93;;;;;;;;;;8318863;28;20033;-61
2023/06/11 12:04:12;;;;;;;7.43;3.27;;;;;;;;;;8316794;28;20287;-61
2023/06/11 12:08:13;;;;;;;4.07;3.05;;;;;;;;;;8319481;28;20036;-61
2023/06/11 12:12:13;;;;;;;8.32;3.17;;;;;;;;;;8319273;28;20021;-61
2023/06/11 12:16:14;;;;;;;4.13;3.10;;;;;;;;;;8319830;28;20388;-61
2023/06/11 12:20:14;;;;;;;3.80;3.00;;;;;;;;;;8317505;28;20065;-61
2023/06/11 12:24:15;;;;;;;4.30;3.20;;;;;;;;;;8319046;28;20797;-61
2023/06/11 12:28:17;;;;;;;5.43;3.00;;;;;;;;;;8320489;28;20119;-61
2023/06/11 12:32:18;;;;;;;3.42;3.15;;;;;;;;;;8318425;28;20048;-61
2023/06/11 12:36:18;;;;;;;5.90;3.10;;;;;;;;;;8321149;28;20166;-61
2023/06/11 12:40:18;;;;;;;5.00;3.30;;;;;;;;;;8316917;28;20821;-61
2023/06/11 12:44:18;;;;;;;5.30;3.45;;;;;;;;;;8318458;28;20107;-61
2023/06/11 12:48:19;;;;;;;5.13;3.10;;;;;;;;;;8315842;28;20032;-61
2023/06/11 12:52:19;;;;;;;7.77;3.40;;;;;;;;;;8319118;28;20760;-61
2023/06/11 12:56:22;;;;;;;3.75;3.00;;;;;;;;;;8318132;28;20087;-61
2023/06/11 13:00:25;;;;;;;4.05;3.00;;;;;;;;;;8317043;28;20041;-61
2023/06/11 13:04:25;;;;;;;8.57;3.30;;;;;;;;;;8315225;28;20374;-61
2023/06/11 13:08:25;;;;;;;3.95;3.22;;;;;;;;;;8318218;28;20029;-61
2023/06/11 13:12:27;;;;;;;5.57;2.80;;;;;;;;;;8317821;28;20143;-61
2023/06/11 13:16:27;;;;;;;4.57;3.38;;;;;;;;;;8315067;28;20037;-61
2023/06/11 13:20:28;;;;;;;7.90;2.92;;;;;;;;;;8317989;28;20673;-61
2023/06/11 13:24:28;;;;;;;4.47;3.25;;;;;;;;;;8317640;28;20017;-61
2023/06/11 13:28:29;;;;;;;6.90;3.22;;;;;;;;;;8315636;28;20036;-61
2023/06/11 13:32:29;;;;;;;4.23;2.97;;;;;;;;;;8315455;28;20689;-61
2023/06/11 13:36:31;;;;;;;4.27;3.27;;;;;;;;;;8316630;28;20148;-61
2023/06/11 13:40:31;;;;;;;6.38;3.20;;;;;;;;;;8317311;28;20492;-61
2023/06/11 13:44:31;;;;;;;6.07;3.00;;;;;;;;;;8316302;28;20029;-61
2023/06/11 13:48:32;;;;;;;3.38;2.95;;;;;;;;;;8315021;28;20437;-61
2023/06/11 13:52:32;;;;;;;5.83;3.30;;;;;;;;;;8315886;28;20066;-62
2023/06/11 13:56:32;;;;;;;4.78;3.22;;;;;;;;;;8317307;28;20732;-61
2023/06/11 14:00:33;;;;;;;3.97;3.17;;;;;;;;;;8314795;28;20033;-61
2023/06/11 14:04:33;;;;;;;3.13;2.90;;;;;;;;;;8315501;28;20028;-61
2023/06/11 14:08:34;;;;;;;4.22;3.13;;;;;;;;;;8315528;28;20082;-61
2023/06/11 14:12:34;;;;;;;4.83;3.40;;;;;;;;;;8317892;28;20056;-61
2023/06/11 14:16:34;;;;;;;3.35;3.05;;;;;;;;;;8307424;28;20056;-61
2023/06/11 14:20:34;;;;;;;3.83;3.17;;;;;;;;;;8316553;28;20182;-62
2023/06/11 14:24:35;;;;;;;6.80;3.93;;;;;;;;;;8317941;28;20107;-61
2023/06/11 14:28:35;;;;;;;4.68;3.50;;;;;;;;;;8316985;28;21549;-61
2023/06/11 14:32:36;;;;;;;5.25;3.20;;;;;;;;;;8315174;28;20048;-61
2023/06/11 14:36:36;;;;;;;6.60;3.67;;;;;;;;;;8316997;28;20849;-62
2023/06/11 14:40:37;;;;;;;5.00;3.40;;;;;;;;;;8315109;28;20268;-61
2023/06/11 14:44:37;;;;;;;5.77;3.47;;;;;;;;;;8322872;28;20900;-61
2023/06/11 14:48:37;;;;;;;3.75;3.38;;;;;;;;;;8322504;28;20484;-61
2023/06/11 14:52:37;;;;;;;8.48;3.65;;;;;;;;;;8321976;28;20017;-61
2023/06/11 14:56:37;;;;;;;3.78;3.20;;;;;;;;;;8322527;28;20036;-61
2023/06/11 15:00:38;;;;;;;4.60;3.58;;;;;;;;;;8321471;28;20063;-61
2023/06/11 15:04:42;;;;;;;3.78;3.10;;;;;;;;;;8319804;28;20032;-61
2023/06/11 15:08:42;;;;;;;3.47;3.15;;;;;;;;;;8322437;28;20021;-61
2023/06/11 15:12:42;;;;;;;4.93;3.17;;;;;;;;;;8321461;28;20059;-62
2023/06/11 15:16:44;;;;;;;3.60;3.30;;;;;;;;;;8319230;28;20048;-61
2023/06/11 15:20:44;;;;;;;4.75;3.42;;;;;;;;;;8320011;28;20124;-61
2023/06/11 15:24:45;;;;;;;4.40;3.00;;;;;;;;;;8318296;28;20128;-61
2023/06/11 15:28:45;;;;;;;4.03;2.90;;;;;;;;;;8318946;28;20479;-61
2023/06/11 15:32:45;;;;;;;5.68;3.55;;;;;;;;;;8317560;28;20041;-61
2023/06/11 15:36:45;;;;;;;3.27;2.70;;;;;;;;;;8320585;28;20151;-61
2023/06/11 15:40:45;;;;;;;4.20;3.25;;;;;;;;;;8319728;28;20033;-61
2023/06/11 15:44:48;;;;;;;3.50;3.00;;;;;;;;;;8320652;28;20059;-61
2023/06/11 15:48:48;;;;;;;6.18;3.13;;;;;;;;;;8318598;28;20053;-61
2023/06/11 15:52:48;;;;;;;3.47;3.00;;;;;;;;;;8317426;28;20822;-61
2023/06/11 15:56:48;;;;;;;4.30;3.30;;;;;;;;;;8320950;28;21031;-62
2023/06/11 16:00:48;;;;;;;4.45;3.25;;;;;;;;;;8318805;28;20579;-61
2023/06/11 16:04:50;;;;;;;4.30;2.83;;;;;;;;;;8320535;28;20025;-61
2023/06/11 16:08:51;;;;;;;4.57;3.17;;;;;;;;;;8319756;28;20020;-61
2023/06/11 16:12:51;;;;;;;4.07;3.00;;;;;;;;;;8319637;28;20416;-61
2023/06/11 16:16:51;;;;;;;4.25;3.00;;;;;;;;;;8318963;28;20037;-61
2023/06/11 16:20:51;;;;;;;7.17;3.17;;;;;;;;;;8313866;28;20806;-61
2023/06/11 16:24:51;;;;;;;5.82;3.10;;;;;;;;;;8320379;28;20701;-61
2023/06/11 16:28:55;;;;;;;6.13;2.97;;;;;;;;;;8319886;28;20020;-62
2023/06/11 16:32:55;;;;;;;4.28;3.00;;;;;;;;;;8317238;28;20484;-61
2023/06/11 16:36:55;;;;;;;4.30;3.40;;;;;;;;;;8320569;28;20060;-61
2023/06/11 16:40:55;;;;;;;4.00;3.00;;;;;;;;;;8318287;28;20021;-61
2023/06/11 16:44:55;;;;;;;7.00;3.25;;;;;;;;;;8320000;28;20083;-61
2023/06/11 16:48:55;;;;;;;11.05;3.38;;;;;;;;;;8317555;28;20039;-61
2023/06/11 16:52:56;;;;;;;4.40;2.75;;;;;;;;;;8318671;28;20031;-61
2023/06/11 16:56:56;;;;;;;4.30;3.00;;;;;;;;;;8318457;28;20103;-61
2023/06/11 17:00:56;;;;;;;4.10;3.27;;;;;;;;;;8316282;28;20049;-61
2023/06/11 17:04:56;;;;;;;3.85;3.13;;;;;;;;;;8318395;28;20020;-61
2023/06/11 17:08:56;;;;;;;4.00;3.15;;;;;;;;;;8316376;28;20076;-61
2023/06/11 17:12:57;;;;;;;3.50;3.20;;;;;;;;;;8316406;28;20039;-61
2023/06/11 17:16:57;;;;;;;3.47;3.13;;;;;;;;;;8315727;28;20059;-61
2023/06/11 17:20:57;;;;;;;5.60;3.50;;;;;;;;;;8318563;28;20033;-61
2023/06/11 17:24:58;;;;;;;5.07;3.17;;;;;;;;;;8315623;28;20017;-61
2023/06/11 17:28:58;;;;;;;5.05;3.15;;;;;;;;;;8316975;28;20029;-61
2023/06/11 17:32:59;;;;;;;3.70;3.10;;;;;;;;;;8314927;28;20036;-61
2023/06/11 17:36:59;;;;;;;4.75;3.13;;;;;;;;;;8315850;28;20021;-61
2023/06/11 17:41:00;;;;;;;4.43;3.38;;;;;;;;;;8318954;28;20473;-61
2023/06/11 17:45:00;;;;;;;5.20;3.38;;;;;;;;;;8318856;28;20057;-61
2023/06/11 17:49:00;;;;;;;3.90;3.03;;;;;;;;;;8315937;28;20037;-61
2023/06/11 17:53:00;;;;;;;5.03;3.22;;;;;;;;;;8316064;28;20032;-61
2023/06/11 17:57:01;;;;;;;6.20;3.22;;;;;;;;;;8315874;28;20020;-61
2023/06/11 18:01:01;;;;;;;4.82;3.17;;;;;;;;;;8314115;28;20041;-61
2023/06/11 18:05:01;;;;;;;6.70;3.10;;;;;;;;;;8317283;28;20057;-61
2023/06/11 18:09:02;;;;;;;3.35;3.05;;;;;;;;;;8314533;28;20017;-61
2023/06/11 18:13:03;;;;;;;3.55;3.10;;;;;;;;;;8312241;28;20028;-61
2023/06/11 18:17:04;;;;;;;3.75;3.05;;;;;;;;;;8312541;28;20060;-61
2023/06/11 18:21:04;;;;;;;3.67;2.90;;;;;;;;;;8320420;28;20025;-61
2023/06/11 18:25:05;;;;;;;3.60;3.30;;;;;;;;;;8319783;28;20033;-61
2023/06/11 18:29:05;;;;;;;3.75;3.10;;;;;;;;;;8320910;28;20094;-61
2023/06/11 18:33:06;;;;;;;3.20;2.90;;;;;;;;;;8321841;28;20518;-61
2023/06/11 18:37:06;;;;;;;2.97;2.60;;;;;;;;;;8314917;28;20047;-61
2023/06/11 18:41:06;;;;;;;3.33;2.83;;;;;;;;;;8317489;28;20067;-61
2023/06/11 18:45:07;;;;;;;3.88;2.78;;;;;;;;;;8317892;28;20940;-61
2023/06/11 18:49:07;;;;;;;2.95;2.75;;;;;;;;;;8314333;28;20033;-61
2023/06/11 18:53:10;;;;;;;3.50;2.92;;;;;;;;;;8318653;28;20029;-61
2023/06/11 18:57:10;;;;;;;3.05;2.72;;;;;;;;;;8314755;28;20643;-61
2023/06/11 19:01:10;;;;;;;6.05;2.65;;;;;;;;;;8315786;28;20809;-60
2023/06/11 19:05:11;;;;;;;9.90;3.10;;;;;;;;;;8318058;28;20033;-61
2023/06/11 19:09:11;;;;;;;4.10;2.77;;;;;;;;;;8311842;28;20079;-61
2023/06/11 19:13:13;;;;;;;5.17;2.80;;;;;;;;;;8311665;28;20065;-61
2023/06/11 19:17:14;;;;;;;2.53;2.20;;;;;;;;;;8313267;28;20307;-61
2023/06/11 19:21:14;;;;;;;3.08;2.78;;;;;;;;;;8314337;28;20040;-61
2023/06/11 19:25:14;;;;;;;3.08;2.38;;;;;;;;;;8318514;28;20029;-61
2023/06/11 19:29:14;;;;;;;2.80;2.60;;;;;;;;;;8310242;28;20021;-61
2023/06/11 19:33:15;;;;;;;5.80;2.83;;;;;;;;;;8312571;28;20130;-61
2023/06/11 19:37:15;;;;;;;3.80;2.60;;;;;;;;;;8314048;28;20134;-61
2023/06/11 19:41:15;;;;;;;3.85;2.70;;;;;;;;;;8317329;28;20070;-61
2023/06/11 19:45:18;;;;;;;3.80;2.70;;;;;;;;;;8315295;28;20428;-61
2023/06/11 19:49:18;;;;;;;5.10;2.42;;;;;;;;;;8311553;28;20025;-61
2023/06/11 19:53:19;;;;;;;2.97;2.57;;;;;;;;;;8312089;28;21137;-61
2023/06/11 19:57:19;;;;;;;4.78;2.72;;;;;;;;;;8313931;28;20025;-61
2023/06/11 20:01:20;;;;;;;4.40;2.72;;;;;;;;;;8313438;28;20045;-61
2023/06/11 20:05:20;;;;;;;5.25;3.00;;;;;;;;;;8315029;28;20105;-61
2023/06/11 20:09:21;;;;;;;4.55;2.80;;;;;;;;;;8313484;28;20053;-61
2023/06/11 20:13:21;;;;;;;5.50;2.85;;;;;;;;;;8312334;28;20839;-61
2023/06/11 20:17:21;;;;;;;4.90;2.65;;;;;;;;;;8314271;28;20045;-61
2023/06/11 20:21:23;;;;;;;3.50;2.77;;;;;;;;;;8311072;28;20253;-61
2023/06/11 20:25:23;;;;;;;6.57;2.90;;;;;;;;;;8311370;28;20143;-61
2023/06/11 20:29:24;;;;;;;5.05;2.95;;;;;;;;;;8315960;28;20021;-61
2023/06/11 20:33:24;;;;;;;4.45;2.92;;;;;;;;;;8314421;28;20029;-61
2023/06/11 20:37:25;;;;;;;3.60;2.65;;;;;;;;;;8314860;28;20084;-61
2023/06/11 20:41:26;;;;;;;4.45;2.65;;;;;;;;;;8314411;28;20143;-61
2023/06/11 20:45:26;;;;;;;5.47;2.97;;;;;;;;;;8313555;28;20037;-61
2023/06/11 20:49:26;;;;;;;3.92;2.92;;;;;;;;;;8314116;28;20126;-61
2023/06/11 20:53:26;;;;;;;3.13;2.65;;;;;;;;;;8311694;28;20063;-61
2023/06/11 20:57:26;;;;;;;3.55;3.08;;;;;;;;;;8310652;28;20029;-61
2023/06/11 21:01:27;;;;;;;3.83;3.00;;;;;;;;;;8309431;28;20083;-61
2023/06/11 21:05:28;;;;;;;4.15;2.80;;;;;;;;;;8304152;28;20490;-61
2023/06/11 21:09:28;;;;;;;3.28;2.90;;;;;;;;;;8310767;28;20191;-61
2023/06/11 21:13:30;;;;;;;6.53;3.00;;;;;;;;;;8308922;28;20025;-61
2023/06/11 21:17:30;;;;;;;4.45;2.97;;;;;;;;;;8308884;28;20250;-61
2023/06/11 21:21:30;;;;;;;3.55;3.13;;;;;;;;;;8313261;28;20029;-61
2023/06/11 21:25:30;;;;;;;3.53;2.97;;;;;;;;;;8314808;28;20930;-61
2023/06/11 21:29:30;;;;;;;3.50;3.17;;;;;;;;;;8313964;28;20021;-61
2023/06/11 21:33:30;;;;;;;3.92;3.00;;;;;;;;;;8312960;28;20044;-61
2023/06/11 21:37:31;;;;;;;4.43;3.10;;;;;;;;;;8310851;28;20443;-61
2023/06/11 21:41:31;;;;;;;4.20;3.33;;;;;;;;;;8312871;28;21320;-61
2023/06/11 21:45:32;;;;;;;4.10;3.15;;;;;;;;;;8315051;28;20059;-61
2023/06/11 21:49:32;;;;;;;4.03;3.33;;;;;;;;;;8314694;28;20056;-61
2023/06/11 21:53:32;;;;;;;5.65;3.33;;;;;;;;;;8314751;28;20021;-61
2023/06/11 21:57:32;;;;;;;3.85;2.88;;;;;;;;;;8314183;28;20855;-61
2023/06/11 22:01:33;;;;;;;4.75;3.15;;;;;;;;;;8314616;28;20079;-61
2023/06/11 22:05:33;;;;;;;3.58;3.20;;;;;;;;;;8312586;28;20297;-61
2023/06/11 22:09:33;;;;;;;3.50;3.20;;;;;;;;;;8317107;28;20051;-61
2023/06/11 22:13:34;;;;;;;4.25;3.90;;;;;;;;;;8317643;28;20029;-61
2023/06/11 22:17:34;;;;;;;4.13;3.47;;;;;;;;;;8315113;28;20068;-61
2023/06/11 22:21:34;;;;;;;3.67;3.38;;;;;;;;;;8316052;28;20032;-61
2023/06/11 22:25:34;;;;;;;4.32;3.13;;;;;;;;;;8318012;28;20017;-61
2023/06/11 22:29:35;;;;;;;7.20;3.30;;;;;;;;;;8317028;28;20032;-61
2023/06/11 22:33:35;;;;;;;5.25;3.22;;;;;;;;;;8316312;28;23190;-61
2023/06/11 22:37:36;;;;;;;7.45;3.83;;;;;;;;;;8316319;28;20033;-61
2023/06/11 22:41:36;;;;;;;3.83;3.33;;;;;;;;;;8314953;28;20116;-61
2023/06/11 22:45:37;;;;;;;5.13;3.42;;;;;;;;;;8314144;28;20056;-61
2023/06/11 22:49:38;;;;;;;6.40;3.20;;;;;;;;;;8313818;28;20131;-61
2023/06/11 22:53:38;;;;;;;8.75;3.42;;;;;;;;;;8315634;28;20029;-61
2023/06/11 22:57:38;;;;;;;4.97;3.33;;;;;;;;;;8317115;28;20032;-61
2023/06/11 23:01:38;;;;;;;3.70;3.40;;;;;;;;;;8313469;28;20156;-61
2023/06/11 23:05:39;;;;;;;6.75;3.40;;;;;;;;;;8323157;28;20811;-61
2023/06/11 23:09:39;;;;;;;3.70;3.40;;;;;;;;;;8321462;28;20013;-61
2023/06/11 23:13:39;;;;;;;4.03;3.63;;;;;;;;;;8320287;28;20040;-61
2023/06/11 23:17:39;;;;;;;5.75;3.75;;;;;;;;;;8319118;28;20678;-61
2023/06/11 23:21:41;;;;;;;4.57;3.15;;;;;;;;;;8316530;28;20120;-61
2023/06/11 23:25:41;;;;;;;5.38;3.42;;;;;;;;;;8320974;28;20470;-61
2023/06/11 23:29:42;;;;;;;4.43;3.33;;;;;;;;;;8321522;28;20298;-61
2023/06/11 23:33:45;;;;;;;4.95;3.60;;;;;;;;;;8319240;28;20287;-61
2023/06/11 23:37:51;;;;;;;5.13;3.22;;;;;;;;;;8320726;28;20786;-61
2023/06/11 23:41:52;;;;;;;4.13;3.47;;;;;;;;;;8321359;28;20040;-61
2023/06/11 23:45:52;;;;;;;6.40;3.40;;;;;;;;;;8318894;28;20075;-61
2023/06/11 23:49:52;;;;;;;5.22;3.45;;;;;;;;;;8321023;28;20033;-61
2023/06/11 23:53:52;;;;;;;7.55;4.20;;;;;;;;;;8319934;28;20021;-61
2023/06/11 23:58:15;;;;;;;4.00;3.60;;;;;;;;;;8323098;28;20025;-61
